Time,TemperatureF,DewpointF,PressureIn,WindDirection,WindDirectionDegrees,WindSpeedMPH,WindSpeedGustMPH,Humidity,HourlyPrecipIn,Conditions,Clouds,dailyrainin,SoftwareType,DateUTC
2013-03-03 00:02:00,41.0,31.0,29.86,NE,37,14.0,21.0,67,0.00,,,0.00,weatherlink.com 1.10,2013-03-03 05:02:00,
2013-03-03 00:17:00,40.8,31.0,29.86,North,358,9.0,21.0,67,0.00,,,0.00,weatherlink.com 1.10,2013-03-03 05:17:00,
2013-03-03 00:32:00,40.8,30.0,29.86,NE,34,11.0,21.0,65,0.00,,,0.00,weatherlink.com 1.10,2013-03-03 05:32:00,
2013-03-03 00:47:00,40.8,30.0,29.86,NNE,20,12.0,17.0,66,0.00,,,0.00,weatherlink.com 1.10,2013-03-03 05:47:00,
2013-03-03 01:02:00,40.9,29.0,29.85,NNE,18,18.0,19.0,62,0.00,,,0.00,weatherlink.com 1.10,2013-03-03 06:02:00,
2013-03-03 01:17:00,41.0,28.0,29.86,NNE,18,5.0,20.0,61,0.00,,,0.00,weatherlink.com 1.10,2013-03-03 06:17:00,
2013-03-03 01:32:00,40.8,29.0,29.86,ENE,67,8.0,19.0,64,0.00,,,0.00,weatherlink.com 1.10,2013-03-03 06:32:00,
2013-03-03 01:47:00,40.8,30.0,29.85,NNE,16,16.0,17.0,65,0.00,,,0.00,weatherlink.com 1.10,2013-03-03 06:47:00,
2013-03-03 02:02:00,40.8,28.0,29.86,NNE,12,16.0,18.0,61,0.00,,,0.00,weatherlink.com 1.10,2013-03-03 07:02:00,
2013-03-03 02:17:00,40.7,30.0,29.85,NE,47,14.0,16.0,65,0.00,,,0.00,weatherlink.com 1.10,2013-03-03 07:17:00,
2013-03-03 02:32:00,40.5,29.0,29.85,NNW,328,10.0,19.0,65,0.00,,,0.00,weatherlink.com 1.10,2013-03-03 07:32:00,
2013-03-03 02:47:00,40.2,31.0,29.85,NNE,15,10.0,16.0,69,0.00,,,0.00,weatherlink.com 1.10,2013-03-03 07:47:00,
2013-03-03 03:02:00,40.0,31.0,29.84,NNE,25,12.0,16.0,70,0.00,,,0.00,weatherlink.com 1.10,2013-03-03 08:02:00,
2013-03-03 03:17:00,39.8,31.0,29.84,West,281,7.0,16.0,71,0.00,,,0.00,weatherlink.com 1.10,2013-03-03 08:17:00,
2013-03-03 03:32:00,39.5,31.0,29.84,NE,40,10.0,14.0,72,0.00,,,0.00,weatherlink.com 1.10,2013-03-03 08:32:00,
2013-03-03 03:47:00,39.5,31.0,29.85,NNE,26,11.0,16.0,72,0.00,,,0.00,weatherlink.com 1.10,2013-03-03 08:47:00,
2013-03-03 04:02:00,39.1,31.0,29.84,NNW,345,5.0,15.0,72,0.00,,,0.00,weatherlink.com 1.10,2013-03-03 09:02:00,
2013-03-03 04:17:00,-999.0,-99.9,29.84,North,-999,-999.0,-999.0,-999,0.00,,,0.00,weatherlink.com 1.10,2013-03-03 09:17:00,
2013-03-03 04:33:00,-999.0,-99.9,29.84,North,-999,-999.0,-999.0,-999,0.00,,,0.00,weatherlink.com 1.10,2013-03-03 09:33:00,
2013-03-03 04:48:00,-999.0,-99.9,29.85,North,-999,-999.0,-999.0,-999,0.00,,,0.00,weatherlink.com 1.10,2013-03-03 09:48:00,
2013-03-03 05:03:00,-999.0,-99.9,29.85,North,-999,-999.0,-999.0,-999,0.00,,,0.00,weatherlink.com 1.10,2013-03-03 10:03:00,
2013-03-03 05:18:00,-999.0,-99.9,29.86,North,-999,-999.0,-999.0,-999,0.00,,,0.00,weatherlink.com 1.10,2013-03-03 10:18:00,
2013-03-03 05:33:00,-999.0,-99.9,29.86,North,-999,-999.0,-999.0,-999,0.00,,,0.00,weatherlink.com 1.10,2013-03-03 10:33:00,
2013-03-03 05:48:00,-999.0,-99.9,29.86,North,-999,-999.0,-999.0,-999,0.00,,,0.00,weatherlink.com 1.10,2013-03-03 10:48:00,
2013-03-03 06:03:00,-999.0,-99.9,29.86,North,-999,-999.0,-999.0,-999,0.00,,,0.00,weatherlink.com 1.10,2013-03-03 11:03:00,
2013-03-03 06:18:00,-999.0,-99.9,29.87,North,-999,-999.0,-999.0,-999,0.00,,,0.00,weatherlink.com 1.10,2013-03-03 11:18:00,
2013-03-03 06:33:00,-999.0,-99.9,29.87,North,-999,-999.0,-999.0,-999,0.00,,,0.00,weatherlink.com 1.10,2013-03-03 11:33:00,
2013-03-03 06:48:00,38.4,29.0,29.87,NE,51,9.0,14.0,69,0.00,,,0.00,weatherlink.com 1.10,2013-03-03 11:48:00,
2013-03-03 07:03:00,38.4,29.0,29.87,NNE,29,8.0,15.0,69,0.00,,,0.00,weatherlink.com 1.10,2013-03-03 12:03:00,
2013-03-03 07:18:00,38.7,29.0,29.88,NNE,12,15.0,19.0,69,0.00,,,0.00,weatherlink.com 1.10,2013-03-03 12:18:00,
2013-03-03 07:33:00,38.9,30.0,29.89,NNW,340,12.0,18.0,71,0.00,,,0.00,weatherlink.com 1.10,2013-03-03 12:33:00,
2013-03-03 07:48:00,38.7,29.0,29.89,NNE,29,5.0,17.0,69,0.00,,,0.00,weatherlink.com 1.10,2013-03-03 12:48:00,
2013-03-03 08:03:00,38.8,29.0,29.89,NE,44,12.0,17.0,67,0.00,,,0.00,weatherlink.com 1.10,2013-03-03 13:03:00,
2013-03-03 08:18:00,38.9,28.0,29.90,North,352,7.0,17.0,66,0.00,,,0.00,weatherlink.com 1.10,2013-03-03 13:18:00,
2013-03-03 08:33:00,39.2,30.0,29.90,NW,326,8.0,17.0,69,0.00,,,0.00,weatherlink.com 1.10,2013-03-03 13:33:00,
2013-03-03 08:48:00,39.2,30.0,29.90,NNE,20,8.0,16.0,69,0.00,,,0.00,weatherlink.com 1.10,2013-03-03 13:48:00,
2013-03-03 09:03:00,39.0,29.0,29.89,NE,43,12.0,17.0,67,0.00,,,0.00,weatherlink.com 1.10,2013-03-03 14:03:00,
2013-03-03 09:18:00,39.3,29.0,29.89,NNE,27,13.0,16.0,66,0.00,,,0.00,weatherlink.com 1.10,2013-03-03 14:18:00,
2013-03-03 09:33:00,39.7,29.0,29.90,NNW,343,12.0,16.0,66,0.00,,,0.00,weatherlink.com 1.10,2013-03-03 14:33:00,
2013-03-03 09:48:00,40.0,30.0,29.90,North,8,14.0,15.0,67,0.00,,,0.00,weatherlink.com 1.10,2013-03-03 14:48:00,
2013-03-03 10:03:00,39.7,28.0,29.90,NE,40,12.0,16.0,63,0.00,,,0.00,weatherlink.com 1.10,2013-03-03 15:03:00,
2013-03-03 10:18:00,40.4,29.0,29.89,NNE,24,10.0,15.0,65,0.00,,,0.00,weatherlink.com 1.10,2013-03-03 15:18:00,
2013-03-03 10:33:00,40.7,28.0,29.89,North,6,16.0,16.0,61,0.00,,,0.00,weatherlink.com 1.10,2013-03-03 15:33:00,
2013-03-03 10:48:00,40.7,27.0,29.89,NNW,343,12.0,19.0,58,0.00,,,0.00,weatherlink.com 1.10,2013-03-03 15:48:00,
2013-03-03 11:03:00,40.6,28.0,29.89,NNE,18,13.0,17.0,60,0.00,,,0.00,weatherlink.com 1.10,2013-03-03 16:03:00,
2013-03-03 11:18:00,41.1,28.0,29.89,NW,325,11.0,16.0,59,0.00,,,0.00,weatherlink.com 1.10,2013-03-03 16:18:00,
2013-03-03 11:33:00,41.1,28.0,29.89,NNE,25,5.0,16.0,59,0.00,,,0.00,weatherlink.com 1.10,2013-03-03 16:33:00,
2013-03-03 11:48:00,41.0,27.0,29.89,North,357,13.0,19.0,59,0.00,,,0.00,weatherlink.com 1.10,2013-03-03 16:48:00,
2013-03-03 12:03:00,41.4,28.0,29.88,NNW,336,11.0,19.0,59,0.00,,,0.00,weatherlink.com 1.10,2013-03-03 17:03:00,
2013-03-03 12:18:00,41.3,28.0,29.88,NNE,15,20.0,20.0,59,0.00,,,0.00,weatherlink.com 1.10,2013-03-03 17:18:00,
2013-03-03 12:33:00,41.7,28.0,29.87,NNW,343,12.0,18.0,58,0.00,,,0.00,weatherlink.com 1.10,2013-03-03 17:33:00,
2013-03-03 12:48:00,41.7,28.0,29.86,NNE,27,11.0,19.0,58,0.00,,,0.00,weatherlink.com 1.10,2013-03-03 17:48:00,
2013-03-03 13:03:00,41.6,28.0,29.86,North,350,9.0,16.0,58,0.00,,,0.00,weatherlink.com 1.10,2013-03-03 18:03:00,
2013-03-03 13:18:00,42.2,27.0,29.85,North,8,10.0,17.0,56,0.00,,,0.00,weatherlink.com 1.10,2013-03-03 18:18:00,
2013-03-03 13:33:00,42.0,28.0,29.85,NNW,328,12.0,16.0,57,0.00,,,0.00,weatherlink.com 1.10,2013-03-03 18:33:00,
2013-03-03 13:48:00,41.2,27.0,29.84,NNE,15,17.0,18.0,57,0.00,,,0.00,weatherlink.com 1.10,2013-03-03 18:48:00,
2013-03-03 14:03:00,41.2,27.0,29.84,NNW,343,11.0,18.0,58,0.00,,,0.00,weatherlink.com 1.10,2013-03-03 19:03:00,
2013-03-03 14:18:00,41.3,28.0,29.84,NNE,12,6.0,17.0,59,0.00,,,0.00,weatherlink.com 1.10,2013-03-03 19:18:00,
2013-03-03 14:33:00,41.2,29.0,29.84,North,8,13.0,14.0,61,0.00,,,0.00,weatherlink.com 1.10,2013-03-03 19:33:00,
2013-03-03 14:49:00,41.9,27.0,29.84,NNE,23,12.0,17.0,57,0.00,,,0.00,weatherlink.com 1.10,2013-03-03 19:49:00,
2013-03-03 15:05:00,43.0,29.0,29.84,North,1,6.0,17.0,57,0.00,,,0.00,weatherlink.com 1.10,2013-03-03 20:05:00,
2013-03-03 15:19:00,42.9,28.0,29.84,NNE,12,12.0,14.0,55,0.00,,,0.00,weatherlink.com 1.10,2013-03-03 20:19:00,
2013-03-03 15:34:00,42.6,28.0,29.84,NNE,25,11.0,16.0,57,0.00,,,0.00,weatherlink.com 1.10,2013-03-03 20:34:00,
2013-03-03 15:49:00,43.2,28.0,29.84,NNW,340,12.0,15.0,56,0.00,,,0.00,weatherlink.com 1.10,2013-03-03 20:49:00,
2013-03-03 16:04:00,42.1,27.0,29.85,NE,46,8.0,13.0,56,0.00,,,0.00,weatherlink.com 1.10,2013-03-03 21:04:00,
2013-03-03 16:19:00,41.7,27.0,29.85,NW,326,4.0,15.0,57,0.00,,,0.00,weatherlink.com 1.10,2013-03-03 21:19:00,
2013-03-03 16:34:00,42.3,28.0,29.85,North,360,2.0,11.0,57,0.00,,,0.00,weatherlink.com 1.10,2013-03-03 21:34:00,
2013-03-03 16:49:00,42.7,28.0,29.85,North,349,6.0,11.0,56,0.00,,,0.00,weatherlink.com 1.10,2013-03-03 21:49:00,
2013-03-03 17:04:00,42.6,28.0,29.86,North,358,10.0,12.0,56,0.00,,,0.00,weatherlink.com 1.10,2013-03-03 22:04:00,
2013-03-03 17:19:00,42.4,28.0,29.86,NE,44,3.0,11.0,56,0.00,,,0.00,weatherlink.com 1.10,2013-03-03 22:19:00,
2013-03-03 17:34:00,42.1,27.0,29.86,NNW,336,8.0,13.0,56,0.00,,,0.00,weatherlink.com 1.10,2013-03-03 22:34:00,
2013-03-03 17:49:00,41.6,28.0,29.87,North,352,11.0,14.0,58,0.00,,,0.00,weatherlink.com 1.10,2013-03-03 22:49:00,
2013-03-03 18:04:00,41.1,28.0,29.87,NNW,328,10.0,13.0,60,0.00,,,0.00,weatherlink.com 1.10,2013-03-03 23:04:00,
2013-03-03 18:19:00,41.0,27.0,29.88,North,358,8.0,12.0,59,0.00,,,0.00,weatherlink.com 1.10,2013-03-03 23:19:00,
2013-03-03 18:34:00,41.0,28.0,29.89,NNE,25,7.0,12.0,60,0.00,,,0.00,weatherlink.com 1.10,2013-03-03 23:34:00,
2013-03-03 21:11:00,41.9,30.0,29.91,WNW,294,5.0,9.0,63,0.00,,,0.00,weatherlink.com 1.10,2013-03-04 02:11:00,
2013-03-03 21:19:00,42.0,29.0,29.91,WNW,301,5.0,9.0,61,0.00,,,0.00,weatherlink.com 1.10,2013-03-04 02:19:00,
2013-03-03 21:34:00,42.2,29.0,29.91,NW,304,4.0,9.0,61,0.00,,,0.00,weatherlink.com 1.10,2013-03-04 02:34:00,
2013-03-03 21:49:00,42.2,30.0,29.92,WNW,283,3.0,8.0,62,0.00,,,0.00,weatherlink.com 1.10,2013-03-04 02:49:00,
2013-03-03 22:04:00,42.1,30.0,29.91,West,264,5.0,8.0,62,0.00,,,0.00,weatherlink.com 1.10,2013-03-04 03:04:00,
2013-03-03 22:19:00,42.0,31.0,29.91,WNW,293,6.0,9.0,64,0.00,,,0.00,weatherlink.com 1.10,2013-03-04 03:19:00,
2013-03-03 22:34:00,42.2,31.0,29.91,WNW,283,5.0,7.0,65,0.00,,,0.00,weatherlink.com 1.10,2013-03-04 03:34:00,
2013-03-03 22:49:00,42.5,31.0,29.91,WNW,298,4.0,9.0,64,0.00,,,0.00,weatherlink.com 1.10,2013-03-04 03:49:00,
2013-03-03 23:04:00,43.4,29.0,29.91,NW,307,5.0,14.0,58,0.00,,,0.00,weatherlink.com 1.10,2013-03-04 04:04:00,
2013-03-03 23:19:00,43.7,30.0,29.91,NW,326,11.0,18.0,58,0.00,,,0.00,weatherlink.com 1.10,2013-03-04 04:19:00,
2013-03-03 23:34:00,43.9,29.0,29.91,NW,309,7.0,17.0,56,0.00,,,0.00,weatherlink.com 1.10,2013-03-04 04:34:00,
2013-03-03 23:49:00,43.9,30.0,29.91,NNW,329,11.0,18.0,59,0.00,,,0.00,weatherlink.com 1.10,2013-03-04 04:49:00,